createdAt,value
2018-12-01T00:00:22.753Z,9.20
2018-12-01T00:00:56.232Z,9.20
2018-12-01T00:01:30.999Z,9.20
2018-12-01T00:02:05.112Z,9.20
2018-12-01T00:02:38.899Z,9.20
2018-12-01T00:03:13.023Z,9.20
2018-12-01T00:03:48.546Z,9.20
2018-12-01T00:04:22.193Z,9.20
2018-12-01T00:04:55.730Z,9.20
2018-12-01T00:05:29.283Z,9.10
2018-12-01T00:06:03.845Z,9.10
2018-12-01T00:06:39.093Z,9.10
2018-12-01T00:07:12.689Z,9.10
2018-12-01T00:07:47.648Z,9.10
2018-12-01T00:08:21.134Z,9.10
2018-12-01T00:08:54.911Z,9.20
2018-12-01T00:09:28.405Z,9.10
2018-12-01T00:10:02.561Z,9.10
2018-12-01T00:10:37.262Z,9.10
2018-12-01T00:11:11.947Z,9.10
2018-12-01T00:11:46.608Z,9.10
2018-12-01T00:12:20.111Z,9.10
2018-12-01T00:12:53.911Z,9.10
2018-12-01T00:13:27.563Z,9.10
2018-12-01T00:14:01.165Z,9.10
2018-12-01T00:14:35.562Z,9.10
2018-12-01T00:15:11.394Z,9.10
2018-12-01T00:15:44.850Z,9.10
2018-12-01T00:16:19.426Z,9.10
2018-12-01T00:16:53.266Z,9.10
2018-12-01T00:17:26.806Z,9.10
2018-12-01T00:18:01.387Z,9.10
2018-12-01T00:18:34.927Z,9.10
2018-12-01T00:19:08.759Z,9.10
2018-12-01T00:19:42.791Z,9.10
2018-12-01T00:20:19.400Z,9.10
2018-12-01T00:20:54.110Z,9.00
2018-12-01T00:21:27.703Z,9.10
2018-12-01T00:22:01.619Z,9.10
2018-12-01T00:22:36.430Z,9.10
2018-12-01T00:23:10.828Z,9.10
2018-12-01T00:23:44.319Z,9.10
2018-12-01T00:24:18.689Z,9.10
2018-12-01T00:24:52.130Z,9.10
2018-12-01T00:25:25.701Z,9.10
2018-12-01T00:26:00.345Z,9.10
2018-12-01T00:26:34.734Z,9.10
2018-12-01T00:27:08.238Z,9.10
2018-12-01T00:27:41.733Z,9.10
2018-12-01T00:28:16.735Z,9.10
2018-12-01T00:28:50.237Z,9.10
2018-12-01T00:29:24.056Z,9.10
2018-12-01T00:29:58.495Z,9.10
2018-12-01T00:30:32.014Z,9.10
2018-12-01T00:31:06.626Z,9.00
2018-12-01T00:31:40.234Z,9.00
2018-12-01T00:32:15.954Z,9.00
2018-12-01T00:32:50.082Z,9.00
2018-12-01T00:33:23.835Z,9.00
2018-12-01T00:33:59.877Z,9.00
2018-12-01T00:34:33.365Z,9.10
2018-12-01T00:35:08.061Z,9.00
2018-12-01T00:35:42.851Z,9.00
2018-12-01T00:36:16.379Z,9.00
2018-12-01T00:36:50.579Z,9.00
2018-12-01T00:37:24.061Z,9.00
2018-12-01T00:37:58.300Z,9.00
2018-12-01T00:38:31.797Z,9.00
2018-12-01T00:39:08.923Z,9.00
2018-12-01T00:39:42.352Z,9.00
2018-12-01T00:40:18.126Z,9.00
2018-12-01T00:40:52.153Z,9.00
2018-12-01T00:41:25.643Z,9.00
2018-12-01T00:41:59.782Z,9.00
2018-12-01T00:42:33.342Z,9.00
2018-12-01T00:43:06.860Z,9.00
2018-12-01T00:43:41.132Z,9.00
2018-12-01T00:44:14.597Z,9.00
2018-12-01T00:44:49.309Z,9.00
2018-12-01T00:45:23.845Z,9.00
2018-12-01T00:45:57.565Z,8.90
2018-12-01T00:46:31.619Z,8.90
2018-12-01T00:47:05.510Z,8.90
2018-12-01T00:47:39.856Z,8.90
2018-12-01T00:48:15.101Z,8.90
2018-12-01T00:48:48.594Z,8.90
2018-12-01T00:49:22.976Z,8.90
2018-12-01T00:49:56.481Z,8.90
2018-12-01T00:50:30.642Z,8.90
2018-12-01T00:51:04.310Z,8.90
2018-12-01T00:51:37.814Z,8.90
2018-12-01T00:52:11.421Z,8.90
2018-12-01T00:52:45.670Z,8.90
2018-12-01T00:53:19.877Z,8.90
2018-12-01T00:53:53.402Z,8.90
2018-12-01T00:54:27.134Z,9.00
2018-12-01T00:55:01.245Z,8.90
2018-12-01T00:55:34.814Z,8.90
2018-12-01T00:56:09.478Z,8.90
2018-12-01T00:56:42.958Z,9.00
2018-12-01T00:57:18.002Z,8.90
2018-12-01T00:57:51.492Z,9.00
2018-12-01T00:58:26.006Z,8.90
2018-12-01T00:58:59.427Z,8.90
2018-12-01T00:59:33.430Z,8.90
2018-12-01T01:00:12.313Z,8.90
2018-12-01T01:00:46.583Z,8.90
2018-12-01T01:01:20.049Z,8.90
2018-12-01T01:01:54.083Z,8.90
2018-12-01T01:02:33.508Z,8.90
2018-12-01T01:03:07.003Z,8.90
2018-12-01T01:03:40.502Z,8.90
2018-12-01T01:04:13.970Z,8.90
2018-12-01T01:04:47.971Z,8.90
2018-12-01T01:05:24.607Z,8.90
2018-12-01T01:05:58.155Z,8.90
2018-12-01T01:06:32.187Z,8.90
2018-12-01T01:07:05.666Z,8.90
2018-12-01T01:07:39.737Z,8.90
2018-12-01T01:08:13.254Z,8.90
2018-12-01T01:08:47.108Z,8.90
2018-12-01T01:09:21.483Z,8.90
2018-12-01T01:09:54.962Z,8.90
2018-12-01T01:10:31.620Z,8.90
2018-12-01T01:11:07.154Z,8.90
2018-12-01T01:11:40.701Z,8.90
2018-12-01T01:12:14.176Z,8.90
2018-12-01T01:12:47.746Z,8.90
2018-12-01T01:13:21.243Z,8.90
2018-12-01T01:13:55.186Z,8.90
2018-12-01T01:14:28.629Z,8.90
2018-12-01T01:15:02.164Z,8.90
2018-12-01T01:15:35.782Z,8.90
2018-12-01T01:16:09.682Z,8.90
2018-12-01T01:16:43.181Z,8.90
2018-12-01T01:17:17.280Z,8.90
2018-12-01T01:17:50.766Z,8.90
2018-12-01T01:18:24.826Z,8.90
2018-12-01T01:18:58.350Z,8.90
2018-12-01T01:19:31.854Z,8.90
2018-12-01T01:20:12.161Z,8.90
2018-12-01T01:20:46.543Z,8.90
2018-12-01T01:21:20.075Z,8.90
2018-12-01T01:21:53.582Z,8.90
2018-12-01T01:22:27.689Z,8.90
2018-12-01T01:23:01.433Z,8.90
2018-12-01T01:23:35.679Z,8.90
2018-12-01T01:24:09.096Z,8.90
2018-12-01T01:24:42.757Z,8.90
2018-12-01T01:25:16.761Z,8.90
2018-12-01T01:25:51.521Z,8.90
2018-12-01T01:26:25.061Z,8.90
2018-12-01T01:26:59.432Z,8.90
2018-12-01T01:27:32.912Z,8.90
2018-12-01T01:28:07.399Z,8.90
2018-12-01T01:28:40.879Z,8.90
2018-12-01T01:29:14.599Z,8.90
2018-12-01T01:29:48.035Z,8.90
2018-12-01T01:30:23.161Z,8.90
2018-12-01T01:30:56.607Z,8.90
2018-12-01T01:31:30.099Z,8.90
2018-12-01T01:32:03.607Z,8.90
2018-12-01T01:32:37.422Z,8.90
2018-12-01T01:33:22.628Z,8.90
2018-12-01T01:33:56.920Z,8.90
2018-12-01T01:34:30.892Z,8.90
2018-12-01T01:35:19.250Z,8.90
2018-12-01T01:35:52.700Z,8.90
2018-12-01T01:36:26.245Z,8.90
2018-12-01T01:36:59.783Z,8.80
2018-12-01T01:37:33.368Z,8.90
2018-12-01T01:38:06.847Z,8.90
2018-12-01T01:38:40.297Z,8.80
2018-12-01T01:39:13.763Z,8.90
2018-12-01T01:39:47.233Z,8.90
2018-12-01T01:40:20.743Z,8.90
2018-12-01T01:40:59.418Z,8.90
2018-12-01T01:41:32.925Z,8.80
2018-12-01T01:42:06.425Z,8.80
2018-12-01T01:42:40.200Z,8.80
2018-12-01T01:43:13.705Z,8.80
2018-12-01T01:43:47.232Z,8.80
2018-12-01T01:44:20.725Z,8.80
2018-12-01T01:44:54.270Z,8.80
2018-12-01T01:45:32.254Z,8.80
2018-12-01T01:46:06.034Z,8.80
2018-12-01T01:46:39.702Z,8.80
2018-12-01T01:47:13.365Z,8.80
2018-12-01T01:47:47.202Z,8.80
2018-12-01T01:48:20.743Z,8.80
2018-12-01T01:48:54.312Z,8.80
2018-12-01T01:49:27.785Z,8.80
2018-12-01T01:50:01.234Z,8.80
2018-12-01T01:50:34.680Z,8.80
2018-12-01T01:51:08.304Z,8.80
2018-12-01T01:51:41.801Z,8.80
2018-12-01T01:52:15.284Z,8.80
2018-12-01T01:52:49.375Z,8.80
2018-12-01T01:53:22.923Z,8.80
2018-12-01T01:53:57.503Z,8.80
2018-12-01T01:54:30.998Z,8.80
2018-12-01T01:55:05.480Z,8.80
2018-12-01T01:55:38.989Z,8.80
2018-12-01T01:56:12.507Z,8.80
2018-12-01T01:56:45.934Z,8.80
2018-12-01T01:57:19.563Z,8.80
2018-12-01T01:57:53.125Z,8.80
2018-12-01T01:58:26.575Z,8.80
2018-12-01T01:59:00.059Z,8.80
2018-12-01T01:59:33.589Z,8.80
2018-12-01T02:00:19.906Z,8.80
2018-12-01T02:00:53.390Z,8.80
2018-12-01T02:01:26.921Z,8.80
2018-12-01T02:02:00.466Z,8.80
2018-12-01T02:02:34.007Z,8.80
2018-12-01T02:03:07.572Z,8.80
2018-12-01T02:03:41.213Z,8.80
2018-12-01T02:04:14.750Z,8.80
2018-12-01T02:04:48.247Z,8.80
2018-12-01T02:05:22.891Z,8.90
2018-12-01T02:05:56.345Z,8.90
2018-12-01T02:06:29.825Z,8.90
2018-12-01T02:07:03.295Z,8.90
2018-12-01T02:07:36.827Z,8.90
2018-12-01T02:08:10.330Z,8.90
2018-12-01T02:08:43.856Z,8.90
2018-12-01T02:09:17.376Z,8.90
2018-12-01T02:09:50.902Z,9.00
2018-12-01T02:10:24.409Z,9.00
2018-12-01T02:10:57.904Z,9.00
2018-12-01T02:11:31.362Z,9.00
2018-12-01T02:12:05.033Z,9.00
2018-12-01T02:12:38.534Z,9.00
2018-12-01T02:13:12.649Z,9.00
2018-12-01T02:13:46.069Z,9.00
2018-12-01T02:14:19.950Z,9.00
2018-12-01T02:14:53.482Z,9.10
2018-12-01T02:15:26.991Z,9.10
2018-12-01T02:16:00.715Z,9.10
2018-12-01T02:16:34.197Z,9.10
2018-12-01T02:17:07.703Z,9.10
2018-12-01T02:17:41.221Z,9.10
2018-12-01T02:18:14.710Z,9.10
2018-12-01T02:18:48.942Z,9.10
2018-12-01T02:19:22.406Z,9.10
2018-12-01T02:19:55.835Z,9.20
2018-12-01T02:20:29.359Z,9.20
2018-12-01T02:21:02.898Z,9.20
2018-12-01T02:21:37.081Z,9.20
2018-12-01T02:22:10.566Z,9.20
2018-12-01T02:22:44.388Z,9.20
2018-12-01T02:23:17.947Z,9.20
2018-12-01T02:23:51.437Z,9.20
2018-12-01T02:24:25.004Z,9.20
2018-12-01T02:24:58.472Z,9.20
2018-12-01T02:25:31.963Z,9.20
2018-12-01T02:26:05.512Z,9.20
2018-12-01T02:26:39.044Z,9.20
2018-12-01T02:27:12.533Z,9.20
2018-12-01T02:27:46.618Z,9.20
2018-12-01T02:28:20.130Z,9.20
2018-12-01T02:28:53.601Z,9.20
2018-12-01T02:29:27.059Z,9.30
2018-12-01T02:30:00.570Z,9.30
2018-12-01T02:30:34.139Z,9.30
2018-12-01T02:31:08.111Z,9.30
2018-12-01T02:31:41.612Z,9.30
2018-12-01T02:32:15.230Z,9.30
2018-12-01T02:32:49.522Z,9.30
2018-12-01T02:33:23.021Z,9.30
2018-12-01T02:33:56.597Z,9.30
2018-12-01T02:34:30.021Z,9.30
2018-12-01T02:35:03.536Z,9.30
2018-12-01T02:35:36.983Z,9.30
2018-12-01T02:36:10.482Z,9.30
2018-12-01T02:36:44.511Z,9.30
2018-12-01T02:37:18.000Z,9.20
2018-12-01T02:37:51.495Z,9.20
2018-12-01T02:38:25.301Z,9.20
2018-12-01T02:38:58.951Z,9.20
2018-12-01T02:39:32.408Z,9.20
2018-12-01T02:40:08.522Z,9.20
2018-12-01T02:40:42.005Z,9.20
2018-12-01T02:41:15.564Z,9.20
2018-12-01T02:41:49.130Z,9.10
2018-12-01T02:42:22.603Z,9.20
2018-12-01T02:42:56.083Z,9.10
2018-12-01T02:43:29.619Z,9.10
2018-12-01T02:44:14.352Z,9.10
2018-12-01T02:45:08.339Z,9.10
2018-12-01T02:45:53.122Z,9.10
2018-12-01T02:47:35.574Z,9.10
2018-12-01T02:48:09.096Z,9.00
2018-12-01T02:48:42.531Z,8.90
2018-12-01T02:49:16.039Z,8.90
2018-12-01T02:49:49.436Z,8.90
2018-12-01T02:50:27.878Z,8.90
2018-12-01T02:51:01.342Z,8.90
2018-12-01T02:51:34.821Z,8.80
2018-12-01T02:52:08.315Z,8.80
2018-12-01T02:52:42.313Z,8.80
2018-12-01T02:53:15.802Z,8.80
2018-12-01T02:53:49.869Z,8.80
2018-12-01T02:54:23.367Z,8.80
2018-12-01T02:54:56.842Z,8.80
2018-12-01T02:55:30.484Z,8.90
2018-12-01T02:56:03.973Z,8.90
2018-12-01T02:56:37.442Z,8.90
2018-12-01T02:57:10.973Z,8.90
2018-12-01T02:57:44.557Z,8.90
2018-12-01T02:58:18.111Z,9.00
2018-12-01T02:58:51.603Z,9.00
2018-12-01T02:59:25.187Z,9.00
2018-12-01T02:59:58.809Z,9.00
2018-12-01T03:00:32.303Z,9.00
2018-12-01T03:01:06.324Z,9.00
2018-12-01T03:01:39.887Z,9.00
2018-12-01T03:02:13.440Z,9.10
2018-12-01T03:02:46.959Z,9.10
2018-12-01T03:04:23.425Z,9.10
2018-12-01T03:04:56.911Z,9.10
2018-12-01T03:05:30.402Z,9.10
2018-12-01T03:06:03.850Z,9.10
2018-12-01T03:06:37.531Z,9.10
2018-12-01T03:07:11.885Z,9.10
2018-12-01T03:07:45.471Z,9.10
2018-12-01T03:08:19.001Z,9.20
2018-12-01T03:08:52.761Z,9.20
2018-12-01T03:09:27.003Z,9.20
2018-12-01T03:10:00.456Z,9.20
2018-12-01T03:10:33.914Z,9.20
2018-12-01T03:11:07.453Z,9.20
2018-12-01T03:11:40.974Z,9.20
2018-12-01T03:12:14.526Z,9.20
2018-12-01T03:12:47.984Z,9.20
2018-12-01T03:13:21.477Z,9.30
2018-12-01T03:13:55.524Z,9.30
2018-12-01T03:14:28.968Z,9.30
2018-12-01T03:15:02.479Z,9.30
2018-12-01T03:15:36.784Z,9.30
2018-12-01T03:16:10.313Z,9.30
2018-12-01T03:16:43.860Z,9.30
2018-12-01T03:17:17.472Z,9.30
2018-12-01T03:17:52.239Z,9.40
2018-12-01T03:18:25.725Z,9.40
2018-12-01T03:18:59.259Z,9.40
2018-12-01T03:19:32.781Z,9.40
2018-12-01T03:20:14.880Z,9.40
2018-12-01T03:20:48.374Z,9.40
2018-12-01T03:21:21.891Z,9.40
2018-12-01T03:21:55.369Z,9.40
2018-12-01T03:22:28.869Z,9.50
2018-12-01T03:23:02.369Z,9.50
2018-12-01T03:23:36.077Z,9.50
2018-12-01T03:24:09.573Z,9.50
2018-12-01T03:24:43.163Z,9.50
2018-12-01T03:25:23.303Z,9.50
2018-12-01T03:25:56.889Z,9.50
2018-12-01T03:26:30.361Z,9.50
2018-12-01T03:27:03.871Z,9.50
2018-12-01T03:27:37.528Z,9.50
2018-12-01T03:28:11.045Z,9.50
2018-12-01T03:28:44.670Z,9.50
2018-12-01T03:29:18.301Z,9.50
2018-12-01T03:29:51.771Z,9.50
2018-12-01T03:30:26.224Z,9.50
2018-12-01T03:30:59.672Z,9.50
2018-12-01T03:31:33.182Z,9.50
2018-12-01T03:32:06.701Z,9.50
2018-12-01T03:32:40.240Z,9.50
2018-12-01T03:33:13.709Z,9.50
2018-12-01T03:33:47.226Z,9.50
2018-12-01T03:34:20.774Z,9.40
2018-12-01T03:34:54.350Z,9.50
2018-12-01T03:35:27.894Z,9.50
2018-12-01T03:36:01.411Z,9.40
2018-12-01T03:36:34.925Z,9.40
2018-12-01T03:37:09.251Z,9.40
2018-12-01T03:37:43.502Z,9.40
2018-12-01T03:38:17.034Z,9.40
2018-12-01T03:38:50.541Z,9.40
2018-12-01T03:39:24.066Z,9.40
2018-12-01T03:39:57.605Z,9.40
2018-12-01T03:40:35.338Z,9.40
2018-12-01T03:41:08.861Z,9.40
2018-12-01T03:41:42.321Z,9.40
2018-12-01T03:42:15.829Z,9.30
2018-12-01T03:42:49.791Z,9.30
2018-12-01T03:43:23.283Z,9.30
2018-12-01T03:43:56.751Z,9.30
2018-12-01T03:44:30.227Z,9.30
2018-12-01T03:45:04.410Z,9.30
2018-12-01T03:45:38.455Z,9.30
2018-12-01T03:46:12.690Z,9.30
2018-12-01T03:46:46.235Z,9.30
2018-12-01T03:47:20.293Z,9.30
2018-12-01T03:47:53.789Z,9.30
2018-12-01T03:48:27.279Z,9.30
2018-12-01T03:49:00.793Z,9.30
2018-12-01T03:49:34.294Z,9.30
2018-12-01T03:50:09.538Z,9.20
2018-12-01T03:50:43.040Z,9.30
2018-12-01T03:51:16.511Z,9.20
2018-12-01T03:51:49.956Z,9.20
2018-12-01T03:52:23.413Z,9.20
2018-12-01T03:52:57.558Z,9.20
2018-12-01T03:53:31.029Z,9.20
2018-12-01T03:54:04.877Z,9.20
2018-12-01T03:54:38.447Z,9.20
2018-12-01T03:55:22.248Z,9.20
2018-12-01T03:55:55.781Z,9.20
2018-12-01T03:56:29.266Z,9.20
2018-12-01T03:57:03.089Z,9.20
2018-12-01T03:57:36.542Z,9.20
2018-12-01T03:58:09.974Z,9.20
2018-12-01T03:58:43.434Z,9.20
2018-12-01T03:59:16.968Z,9.20
2018-12-01T03:59:51.174Z,9.20
2018-12-01T04:00:28.155Z,9.20
2018-12-01T04:01:01.940Z,9.20
2018-12-01T04:01:35.451Z,9.20
2018-12-01T04:02:08.928Z,9.20
2018-12-01T04:02:42.583Z,9.20
2018-12-01T04:03:16.065Z,9.20
2018-12-01T04:03:49.509Z,9.20
2018-12-01T04:04:23.046Z,9.20
2018-12-01T04:04:56.747Z,9.20
2018-12-01T04:05:30.689Z,9.20
2018-12-01T04:06:04.354Z,9.20
2018-12-01T04:06:37.896Z,9.20
2018-12-01T04:07:12.010Z,9.20
2018-12-01T04:07:45.699Z,9.30
2018-12-01T04:08:19.195Z,9.30
2018-12-01T04:08:52.698Z,9.30
2018-12-01T04:09:26.119Z,9.30
2018-12-01T04:09:59.631Z,9.30
2018-12-01T04:10:33.144Z,9.30
2018-12-01T04:11:06.953Z,9.30
2018-12-01T04:11:40.999Z,9.30
2018-12-01T04:12:14.609Z,9.30
2018-12-01T04:12:48.137Z,9.30
2018-12-01T04:13:22.017Z,9.30
2018-12-01T04:13:55.507Z,9.30
2018-12-01T04:14:28.988Z,9.30
2018-12-01T04:15:02.519Z,9.30
2018-12-01T04:15:36.109Z,9.30
2018-12-01T04:16:09.614Z,9.30
2018-12-01T04:16:43.181Z,9.30
2018-12-01T04:17:16.646Z,9.30
2018-12-01T04:17:50.115Z,9.30
2018-12-01T04:18:23.796Z,9.30
2018-12-01T04:18:57.328Z,9.30
2018-12-01T04:19:31.661Z,9.30
2018-12-01T04:20:05.203Z,9.30
2018-12-01T04:20:38.759Z,9.30
2018-12-01T04:21:12.303Z,9.30
2018-12-01T04:21:45.810Z,9.30
2018-12-01T04:22:19.318Z,9.30
2018-12-01T04:22:52.816Z,9.30
2018-12-01T04:23:26.269Z,9.20
2018-12-01T04:24:00.271Z,9.20
2018-12-01T04:24:33.798Z,9.20
2018-12-01T04:25:08.338Z,9.20
2018-12-01T04:25:41.798Z,9.20
2018-12-01T04:26:15.369Z,9.20
2018-12-01T04:26:48.943Z,9.20
2018-12-01T04:27:22.433Z,9.20
2018-12-01T04:27:55.947Z,9.20
2018-12-01T04:28:29.481Z,9.10
2018-12-01T04:29:03.062Z,9.10
2018-12-01T04:29:37.010Z,9.10
2018-12-01T04:30:22.364Z,9.10
2018-12-01T04:30:56.062Z,9.10
2018-12-01T04:31:29.679Z,9.10
2018-12-01T04:32:03.267Z,9.10
2018-12-01T04:32:36.774Z,9.10
2018-12-01T04:33:10.283Z,9.10
2018-12-01T04:33:43.798Z,9.10
2018-12-01T04:34:17.258Z,9.10
2018-12-01T04:34:50.762Z,9.10
2018-12-01T04:35:24.806Z,9.10
2018-12-01T04:35:58.314Z,9.10
2018-12-01T04:36:31.750Z,9.10
2018-12-01T04:37:05.337Z,9.10
2018-12-01T04:37:38.814Z,9.10
2018-12-01T04:38:12.415Z,9.10
2018-12-01T04:38:45.924Z,9.10
2018-12-01T04:39:20.020Z,9.10
2018-12-01T04:39:53.551Z,9.10
2018-12-01T04:40:27.100Z,9.10
2018-12-01T04:41:00.614Z,9.20
2018-12-01T04:41:34.100Z,9.20
2018-12-01T04:42:07.681Z,9.20
2018-12-01T04:42:41.721Z,9.20
2018-12-01T04:43:15.321Z,9.20
2018-12-01T04:43:48.785Z,9.20
2018-12-01T04:44:22.286Z,9.20
2018-12-01T04:44:55.942Z,9.20
2018-12-01T04:45:29.448Z,9.20
2018-12-01T04:46:03.081Z,9.20
2018-12-01T04:46:36.601Z,9.20
2018-12-01T04:47:10.082Z,9.20
2018-12-01T04:47:44.973Z,9.20
2018-12-01T04:48:18.475Z,9.20
2018-12-01T04:48:51.963Z,9.20
2018-12-01T04:49:25.445Z,9.20
2018-12-01T04:49:59.783Z,9.30
2018-12-01T04:50:33.236Z,9.30
2018-12-01T04:51:06.758Z,9.30
2018-12-01T04:51:40.206Z,9.30
2018-12-01T04:52:13.673Z,9.30
2018-12-01T04:52:48.353Z,9.30
2018-12-01T04:53:21.844Z,9.30
2018-12-01T04:53:55.323Z,9.30
2018-12-01T04:54:29.360Z,9.30
2018-12-01T04:55:02.895Z,9.30
2018-12-01T04:55:36.426Z,9.30
2018-12-01T04:56:09.979Z,9.30
2018-12-01T04:56:43.400Z,9.30
2018-12-01T04:57:16.921Z,9.30
2018-12-01T04:57:50.773Z,9.30
2018-12-01T04:58:24.221Z,9.30
2018-12-01T04:58:57.721Z,9.30
2018-12-01T04:59:31.210Z,9.30
2018-12-01T05:00:05.744Z,9.30
2018-12-01T05:00:39.411Z,9.30
2018-12-01T05:01:12.899Z,9.30
2018-12-01T05:01:46.353Z,9.30
2018-12-01T05:02:19.859Z,9.30
2018-12-01T05:02:53.337Z,9.20
2018-12-01T05:03:26.819Z,9.20
2018-12-01T05:04:00.283Z,9.20
2018-12-01T05:04:33.759Z,9.20
2018-12-01T05:05:09.057Z,9.20
2018-12-01T05:05:42.589Z,9.20
2018-12-01T05:06:16.103Z,9.20
2018-12-01T05:06:49.611Z,9.20
2018-12-01T05:07:23.170Z,9.10
2018-12-01T05:07:56.659Z,9.10
2018-12-01T05:08:30.116Z,9.10
2018-12-01T05:09:04.123Z,9.10
2018-12-01T05:09:37.609Z,9.10
2018-12-01T05:10:13.419Z,9.10
2018-12-01T05:10:46.948Z,9.10
2018-12-01T05:11:20.484Z,9.00
2018-12-01T05:11:53.946Z,9.00
2018-12-01T05:12:27.377Z,9.00
2018-12-01T05:13:00.934Z,9.00
2018-12-01T05:13:34.421Z,9.00
2018-12-01T05:14:07.870Z,9.00
2018-12-01T05:14:41.334Z,9.00
2018-12-01T05:15:16.053Z,9.00
2018-12-01T05:15:49.613Z,9.00
2018-12-01T05:16:23.057Z,9.00
2018-12-01T05:16:56.522Z,8.90
2018-12-01T05:17:29.958Z,8.90
2018-12-01T05:18:03.436Z,8.90
2018-12-01T05:18:36.855Z,8.90
2018-12-01T05:19:10.310Z,8.90
2018-12-01T05:19:43.800Z,8.90
2018-12-01T05:20:19.386Z,8.90
2018-12-01T05:20:52.883Z,8.80
2018-12-01T05:21:26.435Z,8.80
2018-12-01T05:21:59.966Z,8.80
2018-12-01T05:22:33.459Z,8.80
2018-12-01T05:23:06.970Z,8.80
2018-12-01T05:23:40.438Z,8.80
2018-12-01T05:24:13.937Z,8.80
2018-12-01T05:24:47.368Z,8.80
2018-12-01T05:25:20.928Z,8.80
2018-12-01T05:25:54.363Z,8.80
2018-12-01T05:26:27.851Z,8.70
2018-12-01T05:27:01.533Z,8.70
2018-12-01T05:27:35.054Z,8.70
2018-12-01T05:28:08.513Z,8.70
2018-12-01T05:28:42.040Z,8.70
2018-12-01T05:29:15.553Z,8.70
2018-12-01T05:29:49.289Z,8.70
2018-12-01T05:30:22.779Z,8.70
2018-12-01T05:30:56.236Z,8.70
2018-12-01T05:31:29.721Z,8.70
2018-12-01T05:32:03.170Z,8.70
2018-12-01T05:32:37.575Z,8.70
2018-12-01T05:33:11.099Z,8.70
2018-12-01T05:33:44.559Z,8.70
2018-12-01T05:34:18.423Z,8.70
2018-12-01T05:34:51.930Z,8.70
2018-12-01T05:35:25.599Z,8.70
2018-12-01T05:35:59.100Z,8.70
2018-12-01T05:36:32.615Z,8.60
2018-12-01T05:37:06.438Z,8.60
2018-12-01T05:37:40.205Z,8.60
2018-12-01T05:38:13.674Z,8.60
2018-12-01T05:38:47.121Z,8.60
2018-12-01T05:39:20.675Z,8.60
2018-12-01T05:39:54.163Z,8.60
2018-12-01T05:40:27.597Z,8.60
2018-12-01T05:41:01.107Z,8.60
2018-12-01T05:41:34.605Z,8.60
2018-12-01T05:42:08.110Z,8.70
2018-12-01T05:42:41.617Z,8.60
2018-12-01T05:43:15.113Z,8.60
2018-12-01T05:43:48.874Z,8.70
2018-12-01T05:44:22.338Z,8.70
2018-12-01T05:44:55.837Z,8.70
2018-12-01T05:45:29.363Z,8.70
2018-12-01T05:46:02.891Z,8.60
2018-12-01T05:46:36.851Z,8.60
2018-12-01T05:47:09.948Z,8.60
2018-12-01T05:47:43.448Z,8.70
2018-12-01T05:48:16.950Z,8.70
2018-12-01T05:48:50.420Z,8.70
2018-12-01T05:49:23.917Z,8.70
2018-12-01T05:49:57.362Z,8.70
2018-12-01T05:50:30.842Z,8.70
2018-12-01T05:51:04.329Z,8.70
2018-12-01T05:51:37.948Z,8.70
2018-12-01T05:52:11.418Z,8.70
2018-12-01T05:52:44.961Z,8.70
2018-12-01T05:53:18.488Z,8.70
2018-12-01T05:53:52.196Z,8.70
2018-12-01T05:54:25.718Z,8.70
2018-12-01T05:54:59.157Z,8.70
2018-12-01T05:55:32.669Z,8.70
2018-12-01T05:56:06.161Z,8.70
2018-12-01T05:56:39.647Z,8.70
2018-12-01T05:57:13.391Z,8.70
2018-12-01T05:57:46.937Z,8.70
2018-12-01T05:58:20.438Z,8.60
2018-12-01T05:58:53.919Z,8.60
2018-12-01T05:59:27.459Z,8.60
2018-12-01T06:00:00.974Z,8.60
2018-12-01T06:00:34.413Z,8.60
2018-12-01T06:01:07.845Z,8.60
2018-12-01T06:01:41.354Z,8.60
2018-12-01T06:02:14.789Z,8.60
2018-12-01T06:02:48.335Z,8.60
2018-12-01T06:03:21.899Z,8.60
2018-12-01T06:03:55.359Z,8.60
2018-12-01T06:04:29.033Z,8.60
2018-12-01T06:05:02.565Z,8.60
2018-12-01T06:05:36.094Z,8.60
2018-12-01T06:06:09.634Z,8.70
2018-12-01T06:06:43.131Z,8.70
2018-12-01T06:07:16.787Z,8.60
2018-12-01T06:07:50.262Z,8.60
2018-12-01T06:08:23.739Z,8.60
2018-12-01T06:08:57.271Z,8.70
2018-12-01T06:09:30.818Z,8.60
2018-12-01T06:10:05.757Z,8.60
2018-12-01T06:10:39.294Z,8.60
2018-12-01T06:11:12.810Z,8.60
2018-12-01T06:11:46.258Z,8.60
2018-12-01T06:12:19.791Z,8.60
2018-12-01T06:12:53.956Z,8.60
2018-12-01T06:13:27.457Z,8.60
2018-12-01T06:14:00.978Z,8.60
2018-12-01T06:14:34.470Z,8.70
2018-12-01T06:15:09.859Z,8.60
2018-12-01T06:15:44.663Z,8.60
2018-12-01T06:16:18.177Z,8.60
2018-12-01T06:16:51.628Z,8.60
2018-12-01T06:17:25.162Z,8.60
2018-12-01T06:17:58.680Z,8.60
2018-12-01T06:18:32.165Z,8.70
2018-12-01T06:19:06.398Z,8.70
2018-12-01T06:19:40.521Z,8.70
2018-12-01T06:20:16.417Z,8.70
2018-12-01T06:20:49.896Z,8.60
2018-12-01T06:21:23.359Z,8.70
2018-12-01T06:21:56.815Z,8.60
2018-12-01T06:22:30.254Z,8.60
2018-12-01T06:23:03.709Z,8.60
2018-12-01T06:23:37.138Z,8.60
2018-12-01T06:24:10.631Z,8.60
2018-12-01T06:24:44.079Z,8.60
2018-12-01T06:25:18.722Z,8.70
2018-12-01T06:25:52.229Z,8.60
2018-12-01T06:26:25.717Z,8.60
2018-12-01T06:26:59.232Z,8.60
2018-12-01T06:27:32.772Z,8.60
2018-12-01T06:28:06.468Z,8.60
2018-12-01T06:28:39.902Z,8.60
2018-12-01T06:29:13.402Z,8.60
2018-12-01T06:29:46.864Z,8.70
2018-12-01T06:30:21.349Z,8.60
2018-12-01T06:30:54.884Z,8.70
2018-12-01T06:31:28.309Z,8.70
2018-12-01T06:32:01.770Z,8.60
2018-12-01T06:32:35.259Z,8.60
2018-12-01T06:33:08.746Z,8.60
2018-12-01T06:33:42.310Z,8.60
2018-12-01T06:34:16.427Z,8.60
2018-12-01T06:34:50.140Z,8.60
2018-12-01T06:35:23.621Z,8.60
2018-12-01T06:35:57.109Z,8.60
2018-12-01T06:36:30.644Z,8.60
2018-12-01T06:37:04.177Z,8.60
2018-12-01T06:37:37.868Z,8.60
2018-12-01T06:38:11.425Z,8.60
2018-12-01T06:38:44.954Z,8.60
2018-12-01T06:39:18.390Z,8.60
2018-12-01T06:39:51.929Z,8.60
2018-12-01T06:40:25.426Z,8.60
2018-12-01T06:40:58.939Z,8.60
2018-12-01T06:41:32.439Z,8.60
2018-12-01T06:42:06.466Z,8.60
2018-12-01T06:42:39.993Z,8.60
2018-12-01T06:43:13.637Z,8.60
2018-12-01T06:43:47.181Z,8.60
2018-12-01T06:44:20.721Z,8.60
2018-12-01T06:44:54.214Z,8.60
2018-12-01T06:45:27.770Z,8.60
2018-12-01T06:46:01.242Z,8.60
2018-12-01T06:46:34.743Z,8.60
2018-12-01T06:47:08.266Z,8.70
2018-12-01T06:47:42.430Z,8.70
2018-12-01T06:48:15.893Z,8.70
2018-12-01T06:48:49.426Z,8.70
2018-12-01T06:49:22.922Z,8.70
2018-12-01T06:49:56.405Z,8.70
2018-12-01T06:50:29.855Z,8.70
2018-12-01T06:51:03.319Z,8.70
2018-12-01T06:51:36.867Z,8.70
2018-12-01T06:52:10.376Z,8.70
2018-12-01T06:52:44.195Z,8.70
2018-12-01T06:53:17.678Z,8.70
2018-12-01T06:53:51.201Z,8.70
2018-12-01T06:54:24.791Z,8.70
2018-12-01T06:54:58.267Z,8.70
2018-12-01T06:55:31.742Z,8.70
2018-12-01T06:56:06.276Z,8.70
2018-12-01T06:56:39.790Z,8.70
2018-12-01T06:57:14.316Z,8.70
2018-12-01T06:57:48.414Z,8.70
2018-12-01T06:58:21.902Z,8.70
2018-12-01T06:58:55.366Z,8.70
2018-12-01T06:59:28.855Z,8.70
2018-12-01T07:00:02.322Z,8.70
2018-12-01T07:00:35.784Z,8.70
2018-12-01T07:01:10.287Z,8.70
2018-12-01T07:01:43.756Z,8.70
2018-12-01T07:02:17.250Z,8.70
2018-12-01T07:02:51.089Z,8.70
2018-12-01T07:03:25.213Z,8.70
2018-12-01T07:03:59.601Z,8.80
2018-12-01T07:04:33.099Z,8.70
2018-12-01T07:05:08.294Z,8.70
2018-12-01T07:05:41.814Z,8.80
2018-12-01T07:06:15.326Z,8.80
2018-12-01T07:06:48.770Z,8.80
2018-12-01T07:07:22.369Z,8.80
2018-12-01T07:07:55.822Z,8.80
2018-12-01T07:08:29.317Z,8.80
2018-12-01T07:09:02.829Z,8.80
2018-12-01T07:09:36.281Z,8.80
2018-12-01T07:10:12.094Z,8.80
2018-12-01T07:10:45.586Z,8.80
2018-12-01T07:11:19.070Z,8.80
2018-12-01T07:11:54.739Z,8.80
2018-12-01T07:12:29.906Z,8.80
2018-12-01T07:13:04.303Z,8.80
2018-12-01T07:13:37.813Z,8.80
2018-12-01T07:14:11.391Z,8.80
2018-12-01T07:14:44.839Z,8.80
2018-12-01T07:15:21.934Z,8.80
2018-12-01T07:15:55.388Z,8.80
2018-12-01T07:16:28.890Z,8.80
2018-12-01T07:17:02.413Z,8.80
2018-12-01T07:17:35.919Z,8.80
2018-12-01T07:18:20.658Z,8.80
2018-12-01T07:19:05.203Z,8.80
2018-12-01T07:19:38.996Z,8.70
2018-12-01T07:20:12.573Z,8.70
2018-12-01T07:20:46.091Z,8.70
2018-12-01T07:21:19.557Z,8.70
2018-12-01T07:21:53.033Z,8.70
2018-12-01T07:22:27.276Z,8.70
2018-12-01T07:23:00.720Z,8.70
2018-12-01T07:23:34.470Z,8.70
2018-12-01T07:24:08.530Z,8.80
2018-12-01T07:24:41.982Z,8.80
2018-12-01T07:25:15.565Z,8.80
2018-12-01T07:25:49.102Z,8.80
2018-12-01T07:26:23.330Z,8.80
2018-12-01T07:26:56.847Z,8.80
2018-12-01T07:27:30.348Z,8.80
2018-12-01T07:28:03.865Z,8.80
2018-12-01T07:28:37.373Z,8.80
2018-12-01T07:29:11.069Z,8.80
2018-12-01T07:29:44.550Z,8.80
2018-12-01T07:30:18.029Z,8.80
2018-12-01T07:30:51.548Z,8.80
2018-12-01T07:31:25.067Z,8.90
2018-12-01T07:31:58.618Z,8.90
2018-12-01T07:32:32.048Z,8.90
2018-12-01T07:33:05.888Z,8.90
2018-12-01T07:33:39.420Z,8.90
2018-12-01T07:34:12.906Z,8.90